sensor_id;sensor_type;location;lat;lon;timestamp;temperature;humidity
11840;DHT22;5979;50.800;4.904;2022-11-14T00:00:06;4.30;99.90
11840;DHT22;5979;50.800;4.904;2022-11-14T00:02:32;4.20;99.90
11840;DHT22;5979;50.800;4.904;2022-11-14T00:04:58;4.10;99.90
11840;DHT22;5979;50.800;4.904;2022-11-14T00:07:24;4.10;99.90
11840;DHT22;5979;50.800;4.904;2022-11-14T00:09:49;4.00;99.90
11840;DHT22;5979;50.800;4.904;2022-11-14T00:12:15;4.00;99.90
11840;DHT22;5979;50.800;4.904;2022-11-14T00:14:40;4.00;99.90
11840;DHT22;5979;50.800;4.904;2022-11-14T00:17:06;4.00;99.90
11840;DHT22;5979;50.800;4.904;2022-11-14T00:19:32;3.90;99.90
11840;DHT22;5979;50.800;4.904;2022-11-14T00:21:57;3.90;99.90
11840;DHT22;5979;50.800;4.904;2022-11-14T00:24:24;3.90;99.90
11840;DHT22;5979;50.800;4.904;2022-11-14T00:26:50;3.90;99.90
11840;DHT22;5979;50.800;4.904;2022-11-14T00:29:16;3.80;99.90
11840;DHT22;5979;50.800;4.904;2022-11-14T00:31:41;3.80;99.90
11840;DHT22;5979;50.800;4.904;2022-11-14T00:34:08;3.80;99.90
11840;DHT22;5979;50.800;4.904;2022-11-14T00:36:33;3.80;99.90
11840;DHT22;5979;50.800;4.904;2022-11-14T00:39:00;3.80;99.90
11840;DHT22;5979;50.800;4.904;2022-11-14T00:41:26;3.70;99.90
11840;DHT22;5979;50.800;4.904;2022-11-14T00:43:51;3.70;99.90
11840;DHT22;5979;50.800;4.904;2022-11-14T00:46:17;3.70;99.90
11840;DHT22;5979;50.800;4.904;2022-11-14T00:48:43;3.70;99.90
11840;DHT22;5979;50.800;4.904;2022-11-14T00:51:09;3.70;99.90
11840;DHT22;5979;50.800;4.904;2022-11-14T00:53:35;3.70;99.90
11840;DHT22;5979;50.800;4.904;2022-11-14T00:56:01;3.60;99.90
11840;DHT22;5979;50.800;4.904;2022-11-14T00:58:26;3.60;99.90
11840;DHT22;5979;50.800;4.904;2022-11-14T01:00:52;3.60;99.90
11840;DHT22;5979;50.800;4.904;2022-11-14T01:03:18;3.60;99.90
11840;DHT22;5979;50.800;4.904;2022-11-14T01:05:46;3.60;99.90
11840;DHT22;5979;50.800;4.904;2022-11-14T01:08:13;3.60;99.90
11840;DHT22;5979;50.800;4.904;2022-11-14T01:10:45;3.50;99.90
11840;DHT22;5979;50.800;4.904;2022-11-14T01:13:11;3.50;99.90
11840;DHT22;5979;50.800;4.904;2022-11-14T01:15:38;3.50;99.90
11840;DHT22;5979;50.800;4.904;2022-11-14T01:18:04;3.50;99.90
11840;DHT22;5979;50.800;4.904;2022-11-14T01:20:30;3.40;99.90
11840;DHT22;5979;50.800;4.904;2022-11-14T01:22:56;3.40;99.90
11840;DHT22;5979;50.800;4.904;2022-11-14T01:25:21;3.40;99.90
11840;DHT22;5979;50.800;4.904;2022-11-14T01:27:47;3.50;99.90
11840;DHT22;5979;50.800;4.904;2022-11-14T01:30:13;3.50;99.90
11840;DHT22;5979;50.800;4.904;2022-11-14T01:32:38;3.50;99.90
11840;DHT22;5979;50.800;4.904;2022-11-14T01:35:04;3.50;99.90
11840;DHT22;5979;50.800;4.904;2022-11-14T01:37:30;3.40;99.90
11840;DHT22;5979;50.800;4.904;2022-11-14T01:39:55;3.40;99.90
11840;DHT22;5979;50.800;4.904;2022-11-14T01:42:21;3.40;99.90
11840;DHT22;5979;50.800;4.904;2022-11-14T01:44:49;3.40;99.90
11840;DHT22;5979;50.800;4.904;2022-11-14T01:47:20;3.40;99.90
11840;DHT22;5979;50.800;4.904;2022-11-14T01:49:50;3.40;99.90
11840;DHT22;5979;50.800;4.904;2022-11-14T01:52:22;3.40;99.90
11840;DHT22;5979;50.800;4.904;2022-11-14T01:54:51;3.40;99.90
11840;DHT22;5979;50.800;4.904;2022-11-14T01:57:27;3.40;99.90
11840;DHT22;5979;50.800;4.904;2022-11-14T01:59:55;3.40;99.90
11840;DHT22;5979;50.800;4.904;2022-11-14T02:02:23;3.40;99.90
11840;DHT22;5979;50.800;4.904;2022-11-14T02:05:10;3.30;99.90
11840;DHT22;5979;50.800;4.904;2022-11-14T02:07:38;3.30;99.90
11840;DHT22;5979;50.800;4.904;2022-11-14T02:10:08;3.30;99.90
11840;DHT22;5979;50.800;4.904;2022-11-14T02:12:35;3.30;99.90
11840;DHT22;5979;50.800;4.904;2022-11-14T02:15:02;3.30;99.90
11840;DHT22;5979;50.800;4.904;2022-11-14T02:17:28;3.20;99.90
11840;DHT22;5979;50.800;4.904;2022-11-14T02:20:02;3.20;99.90
11840;DHT22;5979;50.800;4.904;2022-11-14T02:22:28;3.20;99.90
11840;DHT22;5979;50.800;4.904;2022-11-14T02:24:54;3.20;99.90
11840;DHT22;5979;50.800;4.904;2022-11-14T02:27:19;3.20;99.90
11840;DHT22;5979;50.800;4.904;2022-11-14T02:29:45;3.20;99.90
11840;DHT22;5979;50.800;4.904;2022-11-14T02:32:11;3.10;99.90
11840;DHT22;5979;50.800;4.904;2022-11-14T02:34:37;3.00;99.90
11840;DHT22;5979;50.800;4.904;2022-11-14T02:37:03;3.00;99.90
11840;DHT22;5979;50.800;4.904;2022-11-14T02:39:28;2.90;99.90
11840;DHT22;5979;50.800;4.904;2022-11-14T02:41:54;2.80;99.90
11840;DHT22;5979;50.800;4.904;2022-11-14T02:44:20;2.70;99.90
11840;DHT22;5979;50.800;4.904;2022-11-14T02:46:45;2.80;99.90
11840;DHT22;5979;50.800;4.904;2022-11-14T02:49:12;2.90;99.90
11840;DHT22;5979;50.800;4.904;2022-11-14T02:51:38;3.00;99.90
11840;DHT22;5979;50.800;4.904;2022-11-14T02:54:05;3.00;99.90
11840;DHT22;5979;50.800;4.904;2022-11-14T02:56:31;2.90;99.90
11840;DHT22;5979;50.800;4.904;2022-11-14T02:58:57;2.90;99.90
11840;DHT22;5979;50.800;4.904;2022-11-14T03:01:22;2.90;99.90
11840;DHT22;5979;50.800;4.904;2022-11-14T03:03:48;2.90;99.90
11840;DHT22;5979;50.800;4.904;2022-11-14T03:06:14;3.00;99.90
11840;DHT22;5979;50.800;4.904;2022-11-14T03:08:39;3.00;99.90
11840;DHT22;5979;50.800;4.904;2022-11-14T03:11:07;3.00;99.90
11840;DHT22;5979;50.800;4.904;2022-11-14T03:13:33;2.90;99.90
11840;DHT22;5979;50.800;4.904;2022-11-14T03:16:09;2.90;99.90
11840;DHT22;5979;50.800;4.904;2022-11-14T03:18:36;3.00;99.90
11840;DHT22;5979;50.800;4.904;2022-11-14T03:21:06;2.90;99.90
11840;DHT22;5979;50.800;4.904;2022-11-14T03:23:32;2.90;99.90
11840;DHT22;5979;50.800;4.904;2022-11-14T03:26:03;2.90;99.90
11840;DHT22;5979;50.800;4.904;2022-11-14T03:28:28;2.90;99.90
11840;DHT22;5979;50.800;4.904;2022-11-14T03:30:54;2.90;99.90
11840;DHT22;5979;50.800;4.904;2022-11-14T03:33:20;2.90;99.90
11840;DHT22;5979;50.800;4.904;2022-11-14T03:35:47;2.90;99.90
11840;DHT22;5979;50.800;4.904;2022-11-14T03:38:13;2.80;99.90
11840;DHT22;5979;50.800;4.904;2022-11-14T03:40:39;2.80;99.90
11840;DHT22;5979;50.800;4.904;2022-11-14T03:43:04;2.80;99.90
11840;DHT22;5979;50.800;4.904;2022-11-14T03:45:30;2.80;99.90
11840;DHT22;5979;50.800;4.904;2022-11-14T03:47:56;2.80;99.90
11840;DHT22;5979;50.800;4.904;2022-11-14T03:50:21;2.70;99.90
11840;DHT22;5979;50.800;4.904;2022-11-14T03:52:50;2.70;99.90
11840;DHT22;5979;50.800;4.904;2022-11-14T03:55:16;2.70;99.90
11840;DHT22;5979;50.800;4.904;2022-11-14T03:57:41;2.60;99.90
11840;DHT22;5979;50.800;4.904;2022-11-14T04:00:08;2.60;99.90
11840;DHT22;5979;50.800;4.904;2022-11-14T04:02:34;2.60;99.90
11840;DHT22;5979;50.800;4.904;2022-11-14T04:04:59;2.50;99.90
11840;DHT22;5979;50.800;4.904;2022-11-14T04:07:25;2.50;99.90
11840;DHT22;5979;50.800;4.904;2022-11-14T04:09:50;2.50;99.90
11840;DHT22;5979;50.800;4.904;2022-11-14T04:12:17;2.40;99.90
11840;DHT22;5979;50.800;4.904;2022-11-14T04:14:43;2.40;99.90
11840;DHT22;5979;50.800;4.904;2022-11-14T04:17:09;2.30;99.90
11840;DHT22;5979;50.800;4.904;2022-11-14T04:19:35;2.30;99.90
11840;DHT22;5979;50.800;4.904;2022-11-14T04:22:01;2.30;99.90
11840;DHT22;5979;50.800;4.904;2022-11-14T04:24:27;2.40;99.90
11840;DHT22;5979;50.800;4.904;2022-11-14T04:26:53;2.40;99.90
11840;DHT22;5979;50.800;4.904;2022-11-14T04:29:18;2.30;99.90
11840;DHT22;5979;50.800;4.904;2022-11-14T04:31:44;2.30;99.90
11840;DHT22;5979;50.800;4.904;2022-11-14T04:34:09;2.30;99.90
11840;DHT22;5979;50.800;4.904;2022-11-14T04:36:35;2.30;99.90
11840;DHT22;5979;50.800;4.904;2022-11-14T04:39:01;2.30;99.90
11840;DHT22;5979;50.800;4.904;2022-11-14T04:41:26;2.30;99.90
11840;DHT22;5979;50.800;4.904;2022-11-14T04:43:52;2.20;99.90
11840;DHT22;5979;50.800;4.904;2022-11-14T04:46:18;2.10;99.90
11840;DHT22;5979;50.800;4.904;2022-11-14T04:48:43;2.00;99.90
11840;DHT22;5979;50.800;4.904;2022-11-14T04:51:09;2.00;99.90
11840;DHT22;5979;50.800;4.904;2022-11-14T04:53:34;1.90;99.90
11840;DHT22;5979;50.800;4.904;2022-11-14T04:56:00;1.90;99.90
11840;DHT22;5979;50.800;4.904;2022-11-14T04:58:26;1.90;99.90
11840;DHT22;5979;50.800;4.904;2022-11-14T05:00:52;2.00;99.90
11840;DHT22;5979;50.800;4.904;2022-11-14T05:03:17;2.00;99.90
11840;DHT22;5979;50.800;4.904;2022-11-14T05:05:43;2.00;99.90
11840;DHT22;5979;50.800;4.904;2022-11-14T05:08:09;2.10;99.90
11840;DHT22;5979;50.800;4.904;2022-11-14T05:10:34;2.10;99.90
11840;DHT22;5979;50.800;4.904;2022-11-14T05:13:00;2.10;99.90
11840;DHT22;5979;50.800;4.904;2022-11-14T05:15:26;2.20;99.90
11840;DHT22;5979;50.800;4.904;2022-11-14T05:17:51;2.20;99.90
11840;DHT22;5979;50.800;4.904;2022-11-14T05:20:17;2.20;99.90
11840;DHT22;5979;50.800;4.904;2022-11-14T05:22:43;2.20;99.90
11840;DHT22;5979;50.800;4.904;2022-11-14T05:25:09;2.20;99.90
11840;DHT22;5979;50.800;4.904;2022-11-14T05:27:34;2.20;99.90
11840;DHT22;5979;50.800;4.904;2022-11-14T05:30:00;2.20;99.90
11840;DHT22;5979;50.800;4.904;2022-11-14T05:32:26;2.20;99.90
11840;DHT22;5979;50.800;4.904;2022-11-14T05:34:51;2.20;99.90
11840;DHT22;5979;50.800;4.904;2022-11-14T05:37:17;2.30;99.90
11840;DHT22;5979;50.800;4.904;2022-11-14T05:39:43;2.20;99.90
11840;DHT22;5979;50.800;4.904;2022-11-14T05:42:08;2.20;99.90
11840;DHT22;5979;50.800;4.904;2022-11-14T05:44:34;2.20;99.90
11840;DHT22;5979;50.800;4.904;2022-11-14T05:46:59;2.20;99.90
11840;DHT22;5979;50.800;4.904;2022-11-14T05:49:25;2.20;99.90
11840;DHT22;5979;50.800;4.904;2022-11-14T05:51:50;2.10;99.90
11840;DHT22;5979;50.800;4.904;2022-11-14T05:54:16;2.10;99.90
11840;DHT22;5979;50.800;4.904;2022-11-14T05:56:42;2.10;99.90
11840;DHT22;5979;50.800;4.904;2022-11-14T05:59:07;2.00;99.90
11840;DHT22;5979;50.800;4.904;2022-11-14T06:01:33;2.00;99.90
11840;DHT22;5979;50.800;4.904;2022-11-14T06:03:58;2.00;99.90
11840;DHT22;5979;50.800;4.904;2022-11-14T06:06:24;2.00;99.90
11840;DHT22;5979;50.800;4.904;2022-11-14T06:08:50;2.00;99.90
11840;DHT22;5979;50.800;4.904;2022-11-14T06:11:19;1.90;99.90
11840;DHT22;5979;50.800;4.904;2022-11-14T06:13:45;1.80;99.90
11840;DHT22;5979;50.800;4.904;2022-11-14T06:16:16;1.80;99.90
11840;DHT22;5979;50.800;4.904;2022-11-14T06:18:43;1.80;99.90
11840;DHT22;5979;50.800;4.904;2022-11-14T06:21:15;1.80;99.90
11840;DHT22;5979;50.800;4.904;2022-11-14T06:23:42;1.80;99.90
11840;DHT22;5979;50.800;4.904;2022-11-14T06:26:24;1.80;99.90
11840;DHT22;5979;50.800;4.904;2022-11-14T06:28:51;1.80;99.90
11840;DHT22;5979;50.800;4.904;2022-11-14T06:31:18;1.80;99.90
11840;DHT22;5979;50.800;4.904;2022-11-14T06:33:44;1.90;99.90
11840;DHT22;5979;50.800;4.904;2022-11-14T06:36:10;1.90;99.90
11840;DHT22;5979;50.800;4.904;2022-11-14T06:38:38;1.90;99.90
11840;DHT22;5979;50.800;4.904;2022-11-14T06:43:40;1.90;99.90
11840;DHT22;5979;50.800;4.904;2022-11-14T06:46:09;1.90;99.90
11840;DHT22;5979;50.800;4.904;2022-11-14T06:48:35;1.90;99.90
11840;DHT22;5979;50.800;4.904;2022-11-14T06:51:02;1.90;99.90
11840;DHT22;5979;50.800;4.904;2022-11-14T06:53:30;1.90;99.90
11840;DHT22;5979;50.800;4.904;2022-11-14T06:56:04;1.90;99.90
11840;DHT22;5979;50.800;4.904;2022-11-14T06:58:36;1.90;99.90
11840;DHT22;5979;50.800;4.904;2022-11-14T07:01:11;1.90;99.90
11840;DHT22;5979;50.800;4.904;2022-11-14T07:03:37;1.90;99.90
11840;DHT22;5979;50.800;4.904;2022-11-14T07:06:04;1.90;99.90
11840;DHT22;5979;50.800;4.904;2022-11-14T07:08:30;1.90;99.90
11840;DHT22;5979;50.800;4.904;2022-11-14T07:11:07;1.90;99.90
11840;DHT22;5979;50.800;4.904;2022-11-14T07:13:34;1.90;99.90
11840;DHT22;5979;50.800;4.904;2022-11-14T07:16:00;1.90;99.90
11840;DHT22;5979;50.800;4.904;2022-11-14T07:18:28;2.00;99.90
11840;DHT22;5979;50.800;4.904;2022-11-14T07:21:03;2.10;99.90
11840;DHT22;5979;50.800;4.904;2022-11-14T07:23:31;2.20;99.90
11840;DHT22;5979;50.800;4.904;2022-11-14T07:26:04;2.30;99.90
11840;DHT22;5979;50.800;4.904;2022-11-14T07:28:34;2.30;99.90
11840;DHT22;5979;50.800;4.904;2022-11-14T07:31:05;2.40;99.90
11840;DHT22;5979;50.800;4.904;2022-11-14T07:33:32;2.50;99.90
11840;DHT22;5979;50.800;4.904;2022-11-14T07:35:58;2.60;99.90
11840;DHT22;5979;50.800;4.904;2022-11-14T07:38:23;2.70;99.90
11840;DHT22;5979;50.800;4.904;2022-11-14T07:40:59;2.80;99.90
11840;DHT22;5979;50.800;4.904;2022-11-14T07:43:26;2.90;99.90
11840;DHT22;5979;50.800;4.904;2022-11-14T07:45:52;3.10;99.90
11840;DHT22;5979;50.800;4.904;2022-11-14T07:48:18;3.10;99.90
11840;DHT22;5979;50.800;4.904;2022-11-14T07:50:43;3.20;99.90
11840;DHT22;5979;50.800;4.904;2022-11-14T07:53:09;3.20;99.90
11840;DHT22;5979;50.800;4.904;2022-11-14T07:55:36;3.20;99.90
11840;DHT22;5979;50.800;4.904;2022-11-14T07:58:02;3.30;99.90
11840;DHT22;5979;50.800;4.904;2022-11-14T08:00:28;3.40;99.90
11840;DHT22;5979;50.800;4.904;2022-11-14T08:02:54;3.50;99.90
11840;DHT22;5979;50.800;4.904;2022-11-14T08:05:19;3.50;99.90
11840;DHT22;5979;50.800;4.904;2022-11-14T08:07:45;3.60;99.90
11840;DHT22;5979;50.800;4.904;2022-11-14T08:10:11;3.60;99.90
11840;DHT22;5979;50.800;4.904;2022-11-14T08:12:39;3.60;99.90
11840;DHT22;5979;50.800;4.904;2022-11-14T08:15:06;3.70;99.90
11840;DHT22;5979;50.800;4.904;2022-11-14T08:17:32;3.70;99.90
11840;DHT22;5979;50.800;4.904;2022-11-14T08:19:58;3.80;99.90
11840;DHT22;5979;50.800;4.904;2022-11-14T08:22:23;3.90;99.90
11840;DHT22;5979;50.800;4.904;2022-11-14T08:24:49;4.00;99.90
11840;DHT22;5979;50.800;4.904;2022-11-14T08:27:14;4.20;99.90
11840;DHT22;5979;50.800;4.904;2022-11-14T08:29:40;4.40;99.90
11840;DHT22;5979;50.800;4.904;2022-11-14T08:32:06;4.60;99.90
11840;DHT22;5979;50.800;4.904;2022-11-14T08:34:31;4.80;99.90
11840;DHT22;5979;50.800;4.904;2022-11-14T08:36:57;5.00;99.90
11840;DHT22;5979;50.800;4.904;2022-11-14T08:39:23;5.30;99.90
11840;DHT22;5979;50.800;4.904;2022-11-14T08:41:49;5.50;99.90
11840;DHT22;5979;50.800;4.904;2022-11-14T08:44:14;5.70;99.90
11840;DHT22;5979;50.800;4.904;2022-11-14T08:46:40;5.90;99.90
11840;DHT22;5979;50.800;4.904;2022-11-14T08:49:06;6.10;99.90
11840;DHT22;5979;50.800;4.904;2022-11-14T08:51:31;6.30;99.90
11840;DHT22;5979;50.800;4.904;2022-11-14T08:53:57;6.40;99.90
11840;DHT22;5979;50.800;4.904;2022-11-14T08:56:22;6.60;99.90
11840;DHT22;5979;50.800;4.904;2022-11-14T08:58:48;6.70;99.90
11840;DHT22;5979;50.800;4.904;2022-11-14T09:01:14;6.80;99.90
11840;DHT22;5979;50.800;4.904;2022-11-14T09:03:39;6.90;99.90
11840;DHT22;5979;50.800;4.904;2022-11-14T09:06:05;7.00;99.90
11840;DHT22;5979;50.800;4.904;2022-11-14T09:08:31;7.10;99.90
11840;DHT22;5979;50.800;4.904;2022-11-14T09:11:00;7.20;99.90
11840;DHT22;5979;50.800;4.904;2022-11-14T09:13:27;7.30;99.90
11840;DHT22;5979;50.800;4.904;2022-11-14T09:15:52;7.40;99.90
11840;DHT22;5979;50.800;4.904;2022-11-14T09:18:18;7.50;99.90
11840;DHT22;5979;50.800;4.904;2022-11-14T09:20:44;7.50;99.90
11840;DHT22;5979;50.800;4.904;2022-11-14T09:23:10;7.60;99.90
11840;DHT22;5979;50.800;4.904;2022-11-14T09:25:36;7.70;99.90
11840;DHT22;5979;50.800;4.904;2022-11-14T09:28:05;7.80;99.90
11840;DHT22;5979;50.800;4.904;2022-11-14T09:30:32;7.80;99.90
11840;DHT22;5979;50.800;4.904;2022-11-14T09:32:59;7.90;99.90
11840;DHT22;5979;50.800;4.904;2022-11-14T09:35:26;7.90;99.90
11840;DHT22;5979;50.800;4.904;2022-11-14T09:38:03;7.90;99.90
11840;DHT22;5979;50.800;4.904;2022-11-14T09:40:38;7.90;99.90
11840;DHT22;5979;50.800;4.904;2022-11-14T09:45:48;8.00;99.90
11840;DHT22;5979;50.800;4.904;2022-11-14T09:48:19;8.10;99.90
11840;DHT22;5979;50.800;4.904;2022-11-14T09:51:02;8.10;99.90
11840;DHT22;5979;50.800;4.904;2022-11-14T09:56:21;8.20;99.90
11840;DHT22;5979;50.800;4.904;2022-11-14T09:58:49;8.20;99.90
11840;DHT22;5979;50.800;4.904;2022-11-14T10:12:02;8.20;99.90
11840;DHT22;5979;50.800;4.904;2022-11-14T10:18:04;8.30;99.90
11840;DHT22;5979;50.800;4.904;2022-11-14T10:26:04;8.40;99.90
11840;DHT22;5979;50.800;4.904;2022-11-14T10:34:30;8.40;99.90
11840;DHT22;5979;50.800;4.904;2022-11-14T10:39:45;8.50;99.90
11840;DHT22;5979;50.800;4.904;2022-11-14T10:42:17;8.60;99.90
11840;DHT22;5979;50.800;4.904;2022-11-14T10:44:52;8.60;99.90
11840;DHT22;5979;50.800;4.904;2022-11-14T10:47:21;8.60;99.90
11840;DHT22;5979;50.800;4.904;2022-11-14T10:49:51;8.60;99.90
11840;DHT22;5979;50.800;4.904;2022-11-14T10:52:21;8.60;99.90
11840;DHT22;5979;50.800;4.904;2022-11-14T10:54:57;8.60;99.90
11840;DHT22;5979;50.800;4.904;2022-11-14T10:57:24;8.60;99.90
11840;DHT22;5979;50.800;4.904;2022-11-14T10:59:50;8.60;99.90
11840;DHT22;5979;50.800;4.904;2022-11-14T11:02:16;8.50;99.90
11840;DHT22;5979;50.800;4.904;2022-11-14T11:04:44;8.50;99.90
11840;DHT22;5979;50.800;4.904;2022-11-14T11:09:59;8.30;99.90
11840;DHT22;5979;50.800;4.904;2022-11-14T11:12:46;8.00;99.90
11840;DHT22;5979;50.800;4.904;2022-11-14T11:15:19;8.00;99.90
11840;DHT22;5979;50.800;4.904;2022-11-14T11:17:56;8.00;99.90
11840;DHT22;5979;50.800;4.904;2022-11-14T11:20:32;8.00;99.90
11840;DHT22;5979;50.800;4.904;2022-11-14T11:23:21;8.10;99.90
11840;DHT22;5979;50.800;4.904;2022-11-14T11:26:02;8.10;99.90
11840;DHT22;5979;50.800;4.904;2022-11-14T11:28:33;8.10;99.90
11840;DHT22;5979;50.800;4.904;2022-11-14T11:31:10;8.10;99.90
11840;DHT22;5979;50.800;4.904;2022-11-14T11:33:39;8.20;99.90
11840;DHT22;5979;50.800;4.904;2022-11-14T11:36:06;8.20;99.90
11840;DHT22;5979;50.800;4.904;2022-11-14T11:38:35;8.20;99.90
11840;DHT22;5979;50.800;4.904;2022-11-14T11:41:18;8.20;99.90
11840;DHT22;5979;50.800;4.904;2022-11-14T11:43:48;8.30;99.90
11840;DHT22;5979;50.800;4.904;2022-11-14T11:47:08;8.30;99.90
11840;DHT22;5979;50.800;4.904;2022-11-14T11:51:52;8.30;99.90
11840;DHT22;5979;50.800;4.904;2022-11-14T11:54:23;8.30;99.90
11840;DHT22;5979;50.800;4.904;2022-11-14T11:56:53;8.30;99.90
11840;DHT22;5979;50.800;4.904;2022-11-14T11:59:31;8.20;99.90
11840;DHT22;5979;50.800;4.904;2022-11-14T12:02:16;8.20;99.90
11840;DHT22;5979;50.800;4.904;2022-11-14T12:04:44;8.30;99.90
11840;DHT22;5979;50.800;4.904;2022-11-14T12:07:24;8.30;99.90
11840;DHT22;5979;50.800;4.904;2022-11-14T12:09:53;8.30;99.90
11840;DHT22;5979;50.800;4.904;2022-11-14T12:12:56;8.30;99.90
11840;DHT22;5979;50.800;4.904;2022-11-14T12:23:43;8.30;99.90
11840;DHT22;5979;50.800;4.904;2022-11-14T12:26:31;8.40;99.90
11840;DHT22;5979;50.800;4.904;2022-11-14T12:31:38;8.50;99.90
11840;DHT22;5979;50.800;4.904;2022-11-14T12:34:36;8.50;99.90
11840;DHT22;5979;50.800;4.904;2022-11-14T12:36:59;8.50;99.90
11840;DHT22;5979;50.800;4.904;2022-11-14T12:39:29;8.50;99.90
11840;DHT22;5979;50.800;4.904;2022-11-14T12:42:03;8.60;99.90
11840;DHT22;5979;50.800;4.904;2022-11-14T12:44:31;8.50;99.90
11840;DHT22;5979;50.800;4.904;2022-11-14T12:55:00;8.50;99.90
11840;DHT22;5979;50.800;4.904;2022-11-14T12:57:47;8.40;99.90
11840;DHT22;5979;50.800;4.904;2022-11-14T13:00:15;8.40;99.90
11840;DHT22;5979;50.800;4.904;2022-11-14T13:11:41;8.40;99.90
11840;DHT22;5979;50.800;4.904;2022-11-14T13:14:26;8.40;99.90
11840;DHT22;5979;50.800;4.904;2022-11-14T13:17:28;8.40;99.90
11840;DHT22;5979;50.800;4.904;2022-11-14T13:20:30;8.40;99.90
11840;DHT22;5979;50.800;4.904;2022-11-14T13:36:07;8.90;99.90
11840;DHT22;5979;50.800;4.904;2022-11-14T13:38:40;8.90;99.90
11840;DHT22;5979;50.800;4.904;2022-11-14T13:44:29;9.10;99.90
11840;DHT22;5979;50.800;4.904;2022-11-14T13:49:43;9.00;99.90
11840;DHT22;5979;50.800;4.904;2022-11-14T13:52:16;8.90;99.90
11840;DHT22;5979;50.800;4.904;2022-11-14T13:54:47;8.80;99.90
11840;DHT22;5979;50.800;4.904;2022-11-14T13:57:38;8.80;99.90
11840;DHT22;5979;50.800;4.904;2022-11-14T14:00:16;8.80;99.90
11840;DHT22;5979;50.800;4.904;2022-11-14T14:05:31;8.70;99.90
11840;DHT22;5979;50.800;4.904;2022-11-14T14:13:33;8.70;99.90
11840;DHT22;5979;50.800;4.904;2022-11-14T14:19:15;8.70;99.90
11840;DHT22;5979;50.800;4.904;2022-11-14T14:30:18;8.60;99.90
11840;DHT22;5979;50.800;4.904;2022-11-14T14:35:35;8.60;99.90
11840;DHT22;5979;50.800;4.904;2022-11-14T14:38:02;8.50;99.90
11840;DHT22;5979;50.800;4.904;2022-11-14T14:40:31;8.50;99.90
11840;DHT22;5979;50.800;4.904;2022-11-14T14:43:00;8.50;99.90
11840;DHT22;5979;50.800;4.904;2022-11-14T14:45:28;8.40;99.90
11840;DHT22;5979;50.800;4.904;2022-11-14T14:50:36;8.40;99.90
11840;DHT22;5979;50.800;4.904;2022-11-14T14:53:03;8.30;99.90
11840;DHT22;5979;50.800;4.904;2022-11-14T14:55:32;8.30;99.90
11840;DHT22;5979;50.800;4.904;2022-11-14T14:58:15;8.20;99.90
11840;DHT22;5979;50.800;4.904;2022-11-14T15:01:04;8.20;99.90
11840;DHT22;5979;50.800;4.904;2022-11-14T15:03:34;8.20;99.90
11840;DHT22;5979;50.800;4.904;2022-11-14T15:06:06;8.10;99.90
11840;DHT22;5979;50.800;4.904;2022-11-14T15:08:35;8.10;99.90
11840;DHT22;5979;50.800;4.904;2022-11-14T15:11:02;8.00;99.90
11840;DHT22;5979;50.800;4.904;2022-11-14T15:13:29;8.10;99.90
11840;DHT22;5979;50.800;4.904;2022-11-14T15:15:56;8.10;99.90
11840;DHT22;5979;50.800;4.904;2022-11-14T15:18:28;8.10;99.90
11840;DHT22;5979;50.800;4.904;2022-11-14T15:21:15;8.10;99.90
11840;DHT22;5979;50.800;4.904;2022-11-14T15:23:41;8.20;99.90
11840;DHT22;5979;50.800;4.904;2022-11-14T15:26:15;8.20;99.90
11840;DHT22;5979;50.800;4.904;2022-11-14T15:28:42;8.20;99.90
11840;DHT22;5979;50.800;4.904;2022-11-14T15:31:19;8.30;99.90
11840;DHT22;5979;50.800;4.904;2022-11-14T15:33:58;8.30;99.90
11840;DHT22;5979;50.800;4.904;2022-11-14T15:36:24;8.40;99.90
11840;DHT22;5979;50.800;4.904;2022-11-14T15:39:02;8.40;99.90
11840;DHT22;5979;50.800;4.904;2022-11-14T15:41:32;8.40;99.90
11840;DHT22;5979;50.800;4.904;2022-11-14T15:43:58;8.40;99.90
11840;DHT22;5979;50.800;4.904;2022-11-14T15:48:52;8.40;99.90
11840;DHT22;5979;50.800;4.904;2022-11-14T15:51:18;8.40;99.90
11840;DHT22;5979;50.800;4.904;2022-11-14T15:53:47;8.40;99.90
11840;DHT22;5979;50.800;4.904;2022-11-14T15:56:13;8.40;99.90
11840;DHT22;5979;50.800;4.904;2022-11-14T15:58:39;8.40;99.90
11840;DHT22;5979;50.800;4.904;2022-11-14T16:01:12;8.40;99.90
11840;DHT22;5979;50.800;4.904;2022-11-14T16:03:43;8.40;99.90
11840;DHT22;5979;50.800;4.904;2022-11-14T16:06:09;8.40;99.90
11840;DHT22;5979;50.800;4.904;2022-11-14T16:08:35;8.30;99.90
11840;DHT22;5979;50.800;4.904;2022-11-14T16:11:01;8.40;99.90
11840;DHT22;5979;50.800;4.904;2022-11-14T16:13:26;8.30;99.90
11840;DHT22;5979;50.800;4.904;2022-11-14T16:15:52;8.30;99.90
11840;DHT22;5979;50.800;4.904;2022-11-14T16:18:17;8.30;99.90
11840;DHT22;5979;50.800;4.904;2022-11-14T16:20:43;8.30;99.90
11840;DHT22;5979;50.800;4.904;2022-11-14T16:23:11;8.20;99.90
11840;DHT22;5979;50.800;4.904;2022-11-14T16:25:38;8.30;99.90
11840;DHT22;5979;50.800;4.904;2022-11-14T16:28:03;8.20;99.90
11840;DHT22;5979;50.800;4.904;2022-11-14T16:30:29;8.20;99.90
11840;DHT22;5979;50.800;4.904;2022-11-14T16:32:55;8.20;99.90
11840;DHT22;5979;50.800;4.904;2022-11-14T16:35:23;8.20;99.90
11840;DHT22;5979;50.800;4.904;2022-11-14T16:37:49;8.20;99.90
11840;DHT22;5979;50.800;4.904;2022-11-14T16:40:20;8.20;99.90
11840;DHT22;5979;50.800;4.904;2022-11-14T16:42:48;8.20;99.90
11840;DHT22;5979;50.800;4.904;2022-11-14T16:45:17;8.10;99.90
11840;DHT22;5979;50.800;4.904;2022-11-14T16:47:47;8.10;99.90
11840;DHT22;5979;50.800;4.904;2022-11-14T16:50:12;8.10;99.90
11840;DHT22;5979;50.800;4.904;2022-11-14T16:52:38;8.10;99.90
11840;DHT22;5979;50.800;4.904;2022-11-14T16:55:05;8.10;99.90
11840;DHT22;5979;50.800;4.904;2022-11-14T16:57:31;8.10;99.90
11840;DHT22;5979;50.800;4.904;2022-11-14T16:59:57;8.10;99.90
11840;DHT22;5979;50.800;4.904;2022-11-14T17:02:23;8.10;99.90
11840;DHT22;5979;50.800;4.904;2022-11-14T17:04:49;8.10;99.90
11840;DHT22;5979;50.800;4.904;2022-11-14T17:07:15;8.10;99.90
11840;DHT22;5979;50.800;4.904;2022-11-14T17:09:40;8.10;99.90
11840;DHT22;5979;50.800;4.904;2022-11-14T17:12:06;8.10;99.90
11840;DHT22;5979;50.800;4.904;2022-11-14T17:14:32;8.20;99.90
11840;DHT22;5979;50.800;4.904;2022-11-14T17:16:58;8.10;99.90
11840;DHT22;5979;50.800;4.904;2022-11-14T17:19:23;8.00;99.90
11840;DHT22;5979;50.800;4.904;2022-11-14T17:21:49;8.00;99.90
11840;DHT22;5979;50.800;4.904;2022-11-14T17:24:15;8.00;99.90
11840;DHT22;5979;50.800;4.904;2022-11-14T17:26:41;8.00;99.90
11840;DHT22;5979;50.800;4.904;2022-11-14T17:29:07;8.00;99.90
11840;DHT22;5979;50.800;4.904;2022-11-14T17:31:33;8.00;99.90
11840;DHT22;5979;50.800;4.904;2022-11-14T17:33:59;8.00;99.90
11840;DHT22;5979;50.800;4.904;2022-11-14T17:36:27;8.10;99.90
11840;DHT22;5979;50.800;4.904;2022-11-14T17:38:54;8.00;99.90
11840;DHT22;5979;50.800;4.904;2022-11-14T17:41:20;8.10;99.90
11840;DHT22;5979;50.800;4.904;2022-11-14T17:43:46;8.10;99.90
11840;DHT22;5979;50.800;4.904;2022-11-14T17:46:15;8.10;99.90
11840;DHT22;5979;50.800;4.904;2022-11-14T17:48:41;8.00;99.90
11840;DHT22;5979;50.800;4.904;2022-11-14T17:51:11;8.00;99.90
11840;DHT22;5979;50.800;4.904;2022-11-14T17:53:37;8.00;99.90
11840;DHT22;5979;50.800;4.904;2022-11-14T17:56:03;8.00;99.90
11840;DHT22;5979;50.800;4.904;2022-11-14T17:58:29;8.00;99.90
11840;DHT22;5979;50.800;4.904;2022-11-14T18:00:56;8.00;99.90
11840;DHT22;5979;50.800;4.904;2022-11-14T18:03:23;8.00;99.90
11840;DHT22;5979;50.800;4.904;2022-11-14T18:05:49;8.00;99.90